Terminal Aerodrome Forecast
Issued by NWS

Home | Current Version | Previous Version | Graphics & Text | Print | Product List | Glossary On
Versions: 1 2 3 4 5 6 7 8 9 10 11 12 13 14 15 16 17 18 19 20 21 22 23 24 25 26 27 28 29 30
000
FTUS45 KGGW 222320
TAFGDV
TAF
KGDV 222320Z 2300/2324 31026G36KT P6SM FEW080
     FM230200 32023G33KT P6SM BKN080
     FM230500 32017KT P6SM SCT030 OVC040
     FM230900 31013KT P6SM SCT060
     FM231800 31021G29KT P6SM FEW070=

USA.gov is the U.S. government's official web portal to all federal, state and local government web resources and services.